createdAt,value
2019-04-26T05:59:45.028Z,26.20
2019-04-26T06:02:52.718Z,26.10
2019-04-26T06:06:10.592Z,26.20
2019-04-26T06:14:48.288Z,27.20
2019-04-26T06:18:09.568Z,28.90
2019-04-26T06:21:04.646Z,28.20
2019-04-26T06:26:33.867Z,29.20
2019-04-26T06:39:46.072Z,30.90
2019-04-26T06:42:46.760Z,30.10
2019-04-26T06:45:58.987Z,31.00
2019-04-26T06:51:33.334Z,30.50
2019-04-26T06:54:15.746Z,30.90
2019-04-26T07:05:15.219Z,30.60
2019-04-26T07:08:19.542Z,30.30
2019-04-26T07:14:39.990Z,30.40
2019-04-26T07:17:16.388Z,31.10
2019-04-26T07:23:33.806Z,29.90
2019-04-26T07:26:50.247Z,30.10
2019-04-26T07:29:50.597Z,30.30
2019-04-26T07:33:31.745Z,30.20
2019-04-26T07:39:26.052Z,29.00
2019-04-26T07:42:47.268Z,28.70
2019-04-26T07:51:53.083Z,29.80
2019-04-26T07:54:57.927Z,29.60
2019-04-26T07:58:00.853Z,28.60
2019-04-26T08:06:11.763Z,30.20
2019-04-26T08:08:49.061Z,30.10
2019-04-26T08:11:29.630Z,30.00
2019-04-26T08:14:10.539Z,29.60
2019-04-26T08:17:04.935Z,30.10
2019-04-26T08:19:41.815Z,29.10
2019-04-26T08:22:20.398Z,30.60
2019-04-26T08:24:50.782Z,31.00
2019-04-26T08:27:24.626Z,31.00
2019-04-26T08:30:03.363Z,30.00
2019-04-26T08:32:37.190Z,30.50
2019-04-26T08:35:33.846Z,29.50
2019-04-26T08:38:16.080Z,31.00
2019-04-26T08:40:41.865Z,30.20
2019-04-26T08:43:32.019Z,29.40
2019-04-26T08:46:26.529Z,28.90
2019-04-26T08:49:06.529Z,29.00
2019-04-26T08:56:44.402Z,29.60
2019-04-26T08:59:27.055Z,29.80
2019-04-26T09:02:22.601Z,29.60
2019-04-26T09:05:12.295Z,29.60
2019-04-26T09:07:57.681Z,28.60
2019-04-26T09:10:26.815Z,28.30
2019-04-26T09:12:59.857Z,28.50
2019-04-26T09:16:05.535Z,28.50
2019-04-26T09:18:42.916Z,29.60
2019-04-26T09:21:07.125Z,28.50
2019-04-26T09:24:08.413Z,28.50
2019-04-26T09:26:46.661Z,28.70
2019-04-26T09:29:32.154Z,28.10
2019-04-26T09:32:30.193Z,28.80
2019-04-26T09:35:00.008Z,28.50
2019-04-26T09:37:29.716Z,28.60
2019-04-26T09:40:09.610Z,27.80
2019-04-26T09:42:49.786Z,27.00
2019-04-26T09:45:37.428Z,27.50
2019-04-26T09:48:36.711Z,27.40
2019-04-26T09:51:06.842Z,27.60
2019-04-26T09:53:39.512Z,27.00
2019-04-26T09:56:08.054Z,26.90
2019-04-26T09:58:37.782Z,26.60
2019-04-26T10:01:07.678Z,27.00
2019-04-26T10:03:37.415Z,27.10
2019-04-26T10:06:08.298Z,27.30
2019-04-26T10:08:38.270Z,27.70
2019-04-26T10:11:10.930Z,27.60
2019-04-26T10:13:55.227Z,26.90
2019-04-26T10:16:55.976Z,26.70
2019-04-26T10:19:49.647Z,26.40
2019-04-26T10:22:19.506Z,27.00
2019-04-26T10:24:49.286Z,27.00
2019-04-26T10:27:18.988Z,26.90
2019-04-26T10:29:51.298Z,26.40
2019-04-26T10:32:21.893Z,26.40
2019-04-26T10:34:52.649Z,26.90
2019-04-26T10:37:22.411Z,26.70
2019-04-26T10:39:52.345Z,27.50
2019-04-26T10:42:22.228Z,27.50
2019-04-26T10:44:51.989Z,27.90
2019-04-26T10:47:21.769Z,28.50
2019-04-26T10:49:54.443Z,28.70
2019-04-26T10:52:35.760Z,27.20
2019-04-26T10:55:25.984Z,27.20
2019-04-26T10:57:58.606Z,27.00
2019-04-26T11:00:37.927Z,26.60
2019-04-26T11:03:07.690Z,26.80
2019-04-26T11:05:38.614Z,27.10
2019-04-26T11:08:08.623Z,26.80
2019-04-26T11:10:48.088Z,26.90
2019-04-26T11:13:09.904Z,27.20
2019-04-26T11:15:39.676Z,27.40
2019-04-26T11:18:09.426Z,27.90
2019-04-26T11:20:41.357Z,27.80
2019-04-26T11:23:11.774Z,27.70
2019-04-26T11:25:41.948Z,27.70
2019-04-26T11:30:40.912Z,27.90
2019-04-26T11:33:11.378Z,27.80
2019-04-26T11:35:42.073Z,27.80
2019-04-26T11:38:13.398Z,28.10
2019-04-26T11:40:44.332Z,28.10
2019-04-26T11:43:15.870Z,28.50
2019-04-26T11:45:49.361Z,28.20
2019-04-26T11:48:17.412Z,28.30
2019-04-26T11:50:48.173Z,27.50
2019-04-26T11:53:18.551Z,27.50
2019-04-26T11:55:48.300Z,27.70
2019-04-26T11:58:22.633Z,28.10
2019-04-26T12:00:54.743Z,28.20
2019-04-26T12:03:24.832Z,28.00
2019-04-26T12:06:14.161Z,28.20
2019-04-26T12:08:49.614Z,28.70
2019-04-26T12:11:26.288Z,28.80
2019-04-26T12:13:55.427Z,29.20
2019-04-26T12:16:23.339Z,29.10
2019-04-26T12:18:53.164Z,29.20
2019-04-26T12:21:22.927Z,28.60
2019-04-26T12:23:55.496Z,28.60
2019-04-26T12:26:24.096Z,28.50
2019-04-26T12:28:53.908Z,29.10
2019-04-26T12:31:23.670Z,28.80
2019-04-26T12:33:53.468Z,28.90
2019-04-26T12:36:23.274Z,28.40
2019-04-26T12:38:53.076Z,28.20
2019-04-26T12:41:39.465Z,28.60
2019-04-26T12:43:54.527Z,28.50
2019-04-26T12:46:34.944Z,28.40
2019-04-26T12:49:04.752Z,28.80
2019-04-26T12:51:34.535Z,28.80
2019-04-26T12:54:08.400Z,28.30
2019-04-26T12:56:35.921Z,28.50
2019-04-26T12:59:12.258Z,28.40
2019-04-26T13:01:46.289Z,28.50
2019-04-26T13:04:14.091Z,28.60
2019-04-26T13:06:52.438Z,29.00
2019-04-26T13:09:26.462Z,28.80
2019-04-26T13:12:17.902Z,28.90
2019-04-26T13:15:09.563Z,28.60
2019-04-26T13:17:43.526Z,28.70
2019-04-26T13:20:13.576Z,28.80
2019-04-26T13:22:46.345Z,28.70
2019-04-26T13:25:24.824Z,28.70
2019-04-26T13:27:46.935Z,28.90
2019-04-26T13:30:16.864Z,28.70
2019-04-26T13:32:49.174Z,28.60
2019-04-26T13:35:18.251Z,28.60
2019-04-26T13:37:52.585Z,28.80
2019-04-26T13:40:25.679Z,28.80
2019-04-26T13:42:53.827Z,28.90
2019-04-26T13:45:41.485Z,28.80
2019-04-26T13:48:29.166Z,28.60
2019-04-26T13:51:05.822Z,28.50
2019-04-26T13:53:36.023Z,28.60
2019-04-26T13:56:06.435Z,28.60
2019-04-26T13:58:39.024Z,28.70
2019-04-26T14:01:10.406Z,28.50
2019-04-26T14:03:40.272Z,28.10
2019-04-26T14:06:10.023Z,28.20
2019-04-26T14:08:39.836Z,28.20
2019-04-26T14:11:09.606Z,28.40
2019-04-26T14:13:39.413Z,28.60
2019-04-26T14:16:09.328Z,28.60
2019-04-26T14:18:40.693Z,28.70
2019-04-26T14:21:10.598Z,28.70
2019-04-26T14:23:58.069Z,29.10
2019-04-26T14:26:35.366Z,28.90
2019-04-26T14:29:04.955Z,28.80
2019-04-26T14:31:34.918Z,29.00
2019-04-26T14:34:05.423Z,28.60
2019-04-26T14:36:36.420Z,28.30
2019-04-26T14:39:10.534Z,28.30
2019-04-26T14:41:40.336Z,28.50
2019-04-26T14:44:15.857Z,28.80
2019-04-26T14:46:48.527Z,28.90
2019-04-26T14:49:13.212Z,29.10
2019-04-26T14:51:47.001Z,29.20
2019-04-26T14:54:14.864Z,29.40
2019-04-26T14:56:52.147Z,29.00
2019-04-26T14:59:17.636Z,28.70
2019-04-26T15:02:13.253Z,28.90
2019-04-26T15:04:58.177Z,28.80
2019-04-26T15:07:28.270Z,28.90
2019-04-26T15:09:58.945Z,29.10
2019-04-26T15:12:28.679Z,29.00
2019-04-26T15:14:58.463Z,28.90
2019-04-26T15:17:28.371Z,29.00
2019-04-26T15:19:58.286Z,29.20
2019-04-26T15:22:27.985Z,29.20
2019-04-26T15:24:57.765Z,29.10
2019-04-26T15:27:27.472Z,28.70
2019-04-26T15:30:01.004Z,28.70
2019-04-26T15:32:33.928Z,28.70
2019-04-26T15:35:00.103Z,28.60
2019-04-26T15:37:29.851Z,28.60
2019-04-26T15:40:10.112Z,28.60
2019-04-26T15:43:03.000Z,28.50
2019-04-26T15:45:44.570Z,28.80
2019-04-26T15:48:50.313Z,28.50
2019-04-26T15:51:24.443Z,28.20
2019-04-26T18:38:34.603Z,22.80
2019-04-26T18:41:04.781Z,22.60
2019-04-26T18:43:34.506Z,22.60
2019-04-26T18:46:09.551Z,22.60
2019-04-26T18:48:42.009Z,22.50
2019-04-26T18:51:11.102Z,22.50
2019-04-26T18:54:05.067Z,22.50
2019-04-26T18:56:40.478Z,22.40
2019-04-26T18:59:11.764Z,22.40
2019-04-26T19:01:41.822Z,22.40
2019-04-26T19:04:17.306Z,22.20
2019-04-26T19:06:44.554Z,22.20
2019-04-26T19:09:18.103Z,22.10
2019-04-26T19:11:48.763Z,22.00
2019-04-26T19:14:58.786Z,22.00
2019-04-26T19:17:44.833Z,21.90
2019-04-26T19:20:36.616Z,21.60
2019-04-26T19:23:08.531Z,21.60
2019-04-26T19:25:40.966Z,21.50
2019-04-26T19:28:22.433Z,21.50
2019-04-26T19:30:53.174Z,21.50
2019-04-26T19:33:23.346Z,21.50
2019-04-26T19:35:53.167Z,21.40
2019-04-26T19:38:22.883Z,21.40
2019-04-26T19:40:52.637Z,21.40
2019-04-26T19:43:32.562Z,21.20
2019-04-26T19:46:03.950Z,21.30
2019-04-26T19:49:00.085Z,21.30
2019-04-26T19:51:52.210Z,21.30
2019-04-26T19:54:43.738Z,21.10
2019-04-26T19:57:39.073Z,20.90
2019-04-26T20:00:10.794Z,20.90
2019-04-26T20:02:41.994Z,20.90
2019-04-26T20:05:12.004Z,21.10
2019-04-26T20:07:44.514Z,20.90
2019-04-26T20:10:14.295Z,21.00
2019-04-26T20:12:49.166Z,21.10
2019-04-26T20:15:26.649Z,20.90
2019-04-26T20:17:59.339Z,20.80
2019-04-26T20:20:27.936Z,20.80
2019-04-26T20:22:59.323Z,20.90
2019-04-26T20:25:30.063Z,20.90
2019-04-26T20:28:01.518Z,20.70
2019-04-26T20:30:57.937Z,20.50
2019-04-26T20:33:30.809Z,20.40
2019-04-26T20:36:03.361Z,20.30
2019-04-26T20:38:36.193Z,20.30
2019-04-26T20:41:01.964Z,20.20
2019-04-26T20:43:32.086Z,20.20
2019-04-26T20:46:13.766Z,20.10
2019-04-26T20:48:33.608Z,20.00
2019-04-26T20:51:06.630Z,19.70
2019-04-26T20:53:40.040Z,19.80
2019-04-26T20:56:09.842Z,19.90
2019-04-26T20:58:42.012Z,20.00
2019-04-26T21:01:12.959Z,20.20
2019-04-26T21:03:42.798Z,20.20
2019-04-26T21:06:12.473Z,20.30
2019-04-26T21:08:42.554Z,20.30
2019-04-26T21:11:13.693Z,20.10
2019-04-26T21:13:43.747Z,19.80
2019-04-26T21:16:15.527Z,19.30
2019-04-26T21:18:44.770Z,18.90
2019-04-26T21:21:16.231Z,18.70
2019-04-26T21:23:47.781Z,18.80
2019-04-26T21:26:27.933Z,18.70
2019-04-26T21:29:24.339Z,18.80
2019-04-26T21:32:20.274Z,18.70
2019-04-26T21:34:50.850Z,18.60
2019-04-26T21:37:37.486Z,18.60
2019-04-26T21:40:26.978Z,18.60
2019-04-26T21:42:59.587Z,18.50
2019-04-26T21:45:30.914Z,18.40
2019-04-26T21:48:02.499Z,18.30
2019-04-26T21:50:35.814Z,18.20
2019-04-26T21:53:03.422Z,18.00
2019-04-26T21:55:38.292Z,17.90
2019-04-26T21:58:05.328Z,17.80
2019-04-26T22:00:46.720Z,17.70
2019-04-26T22:03:18.739Z,17.70
2019-04-26T22:05:49.775Z,17.70
2019-04-26T22:08:24.693Z,17.60
2019-04-26T22:10:53.626Z,17.70
2019-04-26T22:13:25.238Z,17.50
2019-04-26T22:16:00.413Z,17.30
2019-04-26T22:21:14.618Z,17.20
2019-04-26T22:23:54.796Z,17.00
2019-04-26T22:26:25.528Z,16.90
2019-04-26T22:28:55.434Z,16.80
2019-04-26T22:31:25.224Z,16.60
2019-04-26T22:33:56.118Z,16.70
2019-04-26T22:36:27.346Z,16.60
2019-04-26T22:41:28.652Z,16.40
2019-04-26T22:44:09.884Z,16.30
2019-04-26T22:49:23.108Z,15.90
2019-04-26T22:51:53.856Z,15.80
2019-04-26T22:54:24.996Z,15.70
2019-04-26T22:57:04.081Z,15.70
2019-04-26T22:59:38.104Z,15.60
2019-04-26T23:02:18.289Z,15.40
2019-04-26T23:04:48.254Z,15.40
2019-04-26T23:07:22.760Z,15.40
2019-04-26T23:09:51.908Z,15.30
2019-04-26T23:12:38.344Z,15.20
2019-04-26T23:15:31.183Z,15.10
2019-04-26T23:18:26.993Z,15.00
2019-04-26T23:21:07.736Z,14.90
2019-04-26T23:26:06.410Z,14.80
2019-04-26T23:28:37.681Z,14.70
2019-04-26T23:31:08.268Z,14.60
2019-04-26T23:33:38.974Z,14.50
2019-04-26T23:36:08.732Z,14.60
2019-04-26T23:38:38.530Z,14.40
2019-04-26T23:41:08.418Z,14.40
2019-04-26T23:43:38.371Z,14.40
2019-04-26T23:46:08.217Z,14.30
2019-04-26T23:48:37.984Z,14.30
2019-04-26T23:51:08.490Z,14.10
2019-04-26T23:53:38.380Z,14.00
2019-04-26T23:56:08.191Z,14.00
2019-04-26T23:58:40.245Z,13.90
